Time;durP1;ratioP1;P1;durP2;ratioP2;P2;SDS_P1;SDS_P2;PMS_P1;PMS_P2;Temp;Humidity;BMP_temperature;BMP_pressure;BME280_temperature;BME280_humidity;BME280_pressure;Samples;Min_cycle;Max_cycle;Signal;HPM_P1;HPM_P2
2022/01/20 00:00:03;;;;;;;20.65;5.20;;;2.80;99.90;;;;;;4955775;28;20190;-89
2022/01/20 00:02:31;;;;;;;5.90;4.38;;;2.80;99.90;;;;;;4957787;28;20219;-87
2022/01/20 00:05:24;;;;;;;8.93;5.45;;;2.70;99.90;;;;;;4967663;28;20188;-87
2022/01/20 00:23:15;;;;;;;8.13;4.30;;;2.60;99.90;;;;;;4955004;28;20207;-87
2022/01/20 00:26:53;;;;;;;5.30;3.03;;;2.60;99.90;;;;;;4962256;28;20230;-89
2022/01/20 00:29:25;;;;;;;6.15;4.25;;;2.60;99.90;;;;;;4956638;28;20190;-88
2022/01/20 00:32:07;;;;;;;4.28;2.85;;;2.60;99.90;;;;;;4953551;28;20528;-89
2022/01/20 00:37:21;;;;;;;4.57;2.95;;;2.60;99.90;;;;;;4957858;28;20183;-88
2022/01/20 00:39:47;;;;;;;5.15;2.70;;;;;;;;;;4976599;28;20270;-88
2022/01/20 00:42:14;;;;;;;3.67;3.15;;;2.60;99.90;;;;;;4960993;28;20191;-88
2022/01/20 00:44:40;;;;;;;4.43;2.20;;;2.60;99.90;;;;;;4956776;28;20564;-89
2022/01/20 00:47:06;;;;;;;3.77;2.37;;;2.60;99.90;;;;;;4956198;28;20192;-86
2022/01/20 00:49:32;;;;;;;2.63;1.43;;;;;;;;;;4972902;28;20184;-88
2022/01/20 00:51:58;;;;;;;2.67;2.47;;;;;;;;;;4956074;28;20758;-88
2022/01/20 00:54:24;;;;;;;4.10;3.03;;;;;;;;;;4954812;28;20446;-87
2022/01/20 00:56:49;;;;;;;2.85;2.05;;;2.60;99.90;;;;;;4952048;28;20821;-88
2022/01/20 00:59:15;;;;;;;2.10;1.90;;;;;;;;;;4953173;28;20180;-88
2022/01/20 01:01:41;;;;;;;2.40;1.60;;;2.60;99.90;;;;;;4960851;28;20190;-88
2022/01/20 01:04:07;;;;;;;2.67;2.38;;;2.60;99.90;;;;;;4958336;28;20494;-87
2022/01/20 01:07:06;;;;;;;4.33;2.33;;;;;;;;;;4963247;28;21119;-86
2022/01/20 01:09:32;;;;;;;2.92;2.63;;;2.60;99.90;;;;;;4963943;28;20222;-87
2022/01/20 01:12:02;;;;;;;3.60;2.60;;;2.60;99.90;;;;;;4969993;28;20219;-88
2022/01/20 01:14:30;;;;;;;5.05;2.88;;;2.50;99.90;;;;;;4961637;28;20180;-87
2022/01/20 01:24:37;;;;;;;3.75;2.38;;;2.50;99.90;;;;;;4965375;28;20399;-86
2022/01/20 01:27:04;;;;;;;3.25;2.17;;;2.50;99.90;;;;;;4974489;28;20188;-85
2022/01/20 01:30:03;;;;;;;2.28;1.98;;;2.50;99.90;;;;;;4961976;28;20180;-88
2022/01/20 01:32:42;;;;;;;1.98;1.58;;;2.50;99.90;;;;;;4962835;28;20184;-87
2022/01/20 01:35:10;;;;;;;2.83;2.15;;;2.60;99.90;;;;;;4956078;28;20203;-85
2022/01/20 01:38:24;;;;;;;3.55;2.67;;;2.60;99.90;;;;;;4948695;28;20525;-86
2022/01/20 01:40:24;;;;;;;2.67;2.03;;;2.60;99.90;;;;;;4968782;28;20189;-88
2022/01/20 01:42:51;;;;;;;3.67;2.45;;;2.70;99.90;;;;;;4963160;28;20211;-88
2022/01/20 01:45:28;;;;;;;5.32;2.92;;;2.80;99.90;;;;;;4961658;28;20200;-86
2022/01/20 01:47:55;;;;;;;4.20;2.85;;;2.70;99.90;;;;;;4960503;28;21003;-87
2022/01/20 01:50:21;;;;;;;6.53;3.13;;;2.80;99.90;;;;;;4955656;28;20193;-85
2022/01/20 01:52:47;;;;;;;3.70;2.40;;;2.80;99.90;;;;;;4955403;28;20503;-87
2022/01/20 01:55:14;;;;;;;3.75;2.70;;;2.70;99.90;;;;;;4961536;28;20584;-85
2022/01/20 01:57:40;;;;;;;2.97;1.90;;;2.60;99.90;;;;;;4961346;28;20647;-87
2022/01/20 02:00:09;;;;;;;6.07;4.30;;;2.60;99.90;;;;;;4957655;28;20257;-85
2022/01/20 02:02:36;;;;;;;4.07;2.75;;;2.60;99.90;;;;;;4958394;28;20215;-87
2022/01/20 02:05:04;;;;;;;4.25;3.45;;;2.70;99.90;;;;;;4964068;28;20196;-86
2022/01/20 02:08:00;;;;;;;5.03;3.60;;;2.70;99.90;;;;;;4960444;28;20192;-86
2022/01/20 02:20:59;;;;;;;3.10;2.50;;;2.80;99.90;;;;;;4959191;28;20184;-87
2022/01/20 02:23:26;;;;;;;4.93;3.33;;;;;;;;;;4956597;28;20220;-88
2022/01/20 02:25:52;;;;;;;4.53;3.58;;;2.80;99.90;;;;;;4967041;28;20225;-88
2022/01/20 02:28:18;;;;;;;6.22;3.90;;;2.70;99.90;;;;;;4963181;28;20195;-86
2022/01/20 02:30:44;;;;;;;4.57;3.23;;;;;;;;;;4957185;28;20192;-85
2022/01/20 02:33:19;;;;;;;4.37;2.10;;;2.70;99.90;;;;;;4959644;28;20192;-87
2022/01/20 02:35:48;;;;;;;4.03;2.85;;;2.70;99.90;;;;;;4962773;28;20549;-88
2022/01/20 02:38:28;;;;;;;11.73;3.85;;;2.80;99.90;;;;;;4956959;28;20194;-87
2022/01/20 02:46:24;;;;;;;3.63;3.17;;;2.80;99.90;;;;;;4960848;28;20923;-87
2022/01/20 02:48:49;;;;;;;6.13;3.90;;;;;;;;;;4969622;28;20177;-86
2022/01/20 02:51:15;;;;;;;5.67;3.33;;;;;;;;;;4969533;28;20199;-86
2022/01/20 02:53:41;;;;;;;3.13;2.83;;;;;;;;;;4974965;28;20444;-87
2022/01/20 02:56:07;;;;;;;4.70;3.53;;;;;;;;;;4961479;28;20459;-86
2022/01/20 02:58:33;;;;;;;3.35;2.63;;;2.70;99.90;;;;;;4954885;28;20477;-87
2022/01/20 03:00:59;;;;;;;5.33;3.87;;;2.70;99.90;;;;;;4966496;28;20199;-87
2022/01/20 03:03:25;;;;;;;3.50;2.97;;;2.70;99.90;;;;;;4969448;28;20207;-86
2022/01/20 03:05:51;;;;;;;7.60;4.03;;;2.70;99.90;;;;;;4963934;28;20231;-88
2022/01/20 03:08:17;;;;;;;5.27;4.10;;;;;;;;;;4955689;28;20222;-87
2022/01/20 03:10:43;;;;;;;4.55;3.58;;;2.70;99.90;;;;;;4959652;28;20439;-85
2022/01/20 03:13:09;;;;;;;5.50;3.33;;;;;;;;;;4959318;28;20405;-86
2022/01/20 03:15:35;;;;;;;5.40;3.47;;;;;;;;;;4963611;28;20222;-85
2022/01/20 03:18:03;;;;;;;6.07;2.60;;;2.80;99.90;;;;;;4956312;28;20446;-87
2022/01/20 03:20:32;;;;;;;3.67;3.10;;;2.70;99.90;;;;;;4957781;28;20237;-86
2022/01/20 03:22:59;;;;;;;5.22;3.22;;;2.70;99.90;;;;;;4966393;28;22109;-87
2022/01/20 03:25:24;;;;;;;9.25;4.28;;;2.60;99.90;;;;;;4961315;28;20207;-84
2022/01/20 03:27:50;;;;;;;7.57;4.23;;;;;;;;;;4956213;28;20180;-86
2022/01/20 03:30:16;;;;;;;5.93;5.00;;;2.60;99.90;;;;;;4958826;28;20194;-84
2022/01/20 03:32:42;;;;;;;5.87;4.20;;;;;;;;;;4956282;28;20478;-87
2022/01/20 03:35:08;;;;;;;4.95;2.70;;;2.70;99.90;;;;;;4954294;28;20246;-86
2022/01/20 03:37:35;;;;;;;5.65;4.10;;;2.70;99.90;;;;;;4961550;28;20257;-85
2022/01/20 03:40:01;;;;;;;4.55;3.65;;;2.70;99.90;;;;;;4957594;28;20195;-85
2022/01/20 03:42:27;;;;;;;6.10;4.30;;;1.70;99.90;;;;;;4960074;28;20781;-85
2022/01/20 03:44:54;;;;;;;7.22;5.22;;;2.60;99.90;;;;;;4959672;28;20196;-86
2022/01/20 03:47:23;;;;;;;9.00;4.63;;;2.50;99.90;;;;;;4963006;28;20182;-85
2022/01/20 03:50:06;;;;;;;6.20;4.28;;;2.60;99.90;;;;;;4961333;28;20184;-84
2022/01/20 03:52:31;;;;;;;6.72;4.63;;;2.60;99.90;;;;;;4963573;28;20199;-86
2022/01/20 03:54:57;;;;;;;6.43;4.33;;;;;;;;;;4966403;28;21184;-85
2022/01/20 03:57:23;;;;;;;6.60;4.17;;;;;;;;;;4962536;28;22045;-86
2022/01/20 03:59:49;;;;;;;4.93;4.43;;;2.70;99.90;;;;;;4964249;28;20766;-86
2022/01/20 04:02:15;;;;;;;6.53;4.53;;;2.60;99.90;;;;;;4963082;28;20793;-87
2022/01/20 04:04:41;;;;;;;7.10;4.13;;;;;;;;;;4960801;28;20295;-87
2022/01/20 04:07:07;;;;;;;6.17;4.27;;;;;;;;;;4967393;28;20537;-87
2022/01/20 04:09:33;;;;;;;5.93;4.00;;;;;;;;;;4962385;28;20470;-86
2022/01/20 04:11:59;;;;;;;6.33;3.93;;;;;;;;;;4963017;28;20302;-87
2022/01/20 04:14:28;;;;;;;5.25;4.07;;;;;;;;;;4963491;28;20455;-86
2022/01/20 04:19:24;;;;;;;9.38;4.45;;;2.70;99.90;;;;;;4972252;28;20180;-86
2022/01/20 04:21:50;;;;;;;7.43;5.00;;;2.80;99.90;;;;;;4962905;28;20845;-88
2022/01/20 04:24:16;;;;;;;5.93;3.93;;;2.80;99.90;;;;;;4965183;28;20207;-86
2022/01/20 04:26:43;;;;;;;7.45;4.90;;;2.70;99.90;;;;;;4959836;28;20312;-86
2022/01/20 04:29:13;;;;;;;5.60;4.65;;;2.80;99.90;;;;;;4955234;28;20195;-85
2022/01/20 04:31:40;;;;;;;8.20;4.55;;;2.80;99.90;;;;;;4973284;28;20222;-87
2022/01/20 04:34:08;;;;;;;5.25;4.20;;;2.80;99.90;;;;;;4968588;28;20188;-84
2022/01/20 04:36:38;;;;;;;8.82;5.15;;;2.70;99.90;;;;;;4969926;28;20208;-88
2022/01/20 04:39:07;;;;;;;9.50;4.57;;;2.70;99.90;;;;;;4965825;28;20303;-86
2022/01/20 04:41:32;;;;;;;7.45;4.00;;;2.70;99.90;;;;;;4958008;28;20183;-85
2022/01/20 04:43:59;;;;;;;3.77;3.27;;;2.60;99.90;;;;;;4961764;28;20215;-87
2022/01/20 04:46:36;;;;;;;6.07;3.80;;;2.70;99.90;;;;;;4959653;28;20211;-85
2022/01/20 04:59:41;;;;;;;5.10;3.50;;;2.50;99.90;;;;;;4966293;28;20171;-84
2022/01/20 05:02:07;;;;;;;8.38;4.88;;;2.50;99.90;;;;;;4963404;28;20211;-86
2022/01/20 05:04:34;;;;;;;5.70;3.40;;;;;;;;;;4961780;28;20245;-87
2022/01/20 05:07:00;;;;;;;6.28;4.28;;;2.50;99.90;;;;;;4954615;28;20204;-86
2022/01/20 05:09:26;;;;;;;6.23;4.43;;;;;;;;;;4957693;28;20732;-86
2022/01/20 05:12:09;;;;;;;13.63;5.32;;;2.60;99.90;;;;;;4958403;28;20204;-84
2022/01/20 05:14:35;;;;;;;10.68;5.18;;;2.60;99.90;;;;;;4957577;28;20184;-84
2022/01/20 05:17:00;;;;;;;7.17;5.10;;;2.60;99.90;;;;;;4959539;28;20267;-88
2022/01/20 05:19:28;;;;;;;6.57;4.03;;;2.60;99.90;;;;;;4979873;28;20185;-85
2022/01/20 05:21:54;;;;;;;6.78;4.45;;;2.60;99.90;;;;;;4963174;28;20455;-85
2022/01/20 05:24:22;;;;;;;18.60;4.50;;;2.60;99.90;;;;;;4964300;28;20849;-87
2022/01/20 05:26:50;;;;;;;9.55;5.10;;;2.60;99.90;;;;;;4989433;28;20865;-86
2022/01/20 05:29:16;;;;;;;12.15;3.85;;;2.60;99.90;;;;;;4959206;28;20183;-87
2022/01/20 05:31:41;;;;;;;6.72;4.70;;;2.60;99.90;;;;;;4963267;28;20208;-86
2022/01/20 05:34:07;;;;;;;7.83;4.20;;;2.60;99.90;;;;;;4958547;28;20218;-85
2022/01/20 05:36:33;;;;;;;5.27;3.40;;;2.60;99.90;;;;;;4950614;28;20247;-84
2022/01/20 05:38:58;;;;;;;9.73;3.70;;;;;;;;;;4958458;28;20259;-86
2022/01/20 05:41:24;;;;;;;9.07;3.80;;;;;;;;;;4964461;28;20199;-85
2022/01/20 05:43:50;;;;;;;15.88;4.70;;;2.70;99.90;;;;;;4974774;28;20479;-84
2022/01/20 05:46:21;;;;;;;8.73;5.50;;;;;;;;;;4972287;28;20214;-85
2022/01/20 05:48:48;;;;;;;7.72;5.50;;;2.70;99.90;;;;;;4965916;28;20261;-87
2022/01/20 05:51:14;;;;;;;8.55;5.53;;;2.80;99.90;;;;;;4964395;28;20699;-85
2022/01/20 05:53:40;;;;;;;7.60;4.20;;;;;;;;;;4967287;28;20180;-85
2022/01/20 05:56:06;;;;;;;11.55;4.97;;;2.80;99.90;;;;;;4957987;28;20513;-86
2022/01/20 05:58:36;;;;;;;9.13;5.27;;;;;;;;;;4964126;28;20192;-85
2022/01/20 06:01:03;;;;;;;10.55;5.03;;;2.80;99.90;;;;;;4950035;28;20427;-87
2022/01/20 06:03:36;;;;;;;9.10;5.60;;;;;;;;;;4962100;28;20204;-85
2022/01/20 06:06:06;;;;;;;11.50;4.60;;;2.70;99.90;;;;;;4955304;28;20204;-85
2022/01/20 06:08:33;;;;;;;11.13;4.88;;;2.60;99.90;;;;;;4965804;28;20218;-87
2022/01/20 06:10:59;;;;;;;10.32;5.97;;;2.60;99.90;;;;;;4962684;28;20215;-85
2022/01/20 06:13:26;;;;;;;12.87;5.00;;;2.60;99.90;;;;;;4958401;28;20591;-87
2022/01/20 06:15:52;;;;;;;8.32;4.75;;;2.60;99.90;;;;;;4957760;28;20462;-85
2022/01/20 06:18:18;;;;;;;11.33;6.80;;;;;;;;;;4961230;28;20180;-85
2022/01/20 06:20:44;;;;;;;9.40;6.20;;;2.30;99.90;;;;;;4957540;28;20536;-86
2022/01/20 06:23:10;;;;;;;15.30;5.72;;;2.30;99.90;;;;;;4960496;28;20357;-86
2022/01/20 06:25:39;;;;;;;12.40;6.20;;;;;;;;;;4971104;28;20239;-88
2022/01/20 06:28:08;;;;;;;12.63;6.47;;;2.10;99.90;;;;;;4951988;28;20439;-86
2022/01/20 06:30:34;;;;;;;19.30;7.57;;;2.00;99.90;;;;;;4953861;28;20201;-87
2022/01/20 06:33:03;;;;;;;9.67;5.43;;;1.90;99.90;;;;;;4960900;28;20251;-84
2022/01/20 06:35:29;;;;;;;13.50;8.25;;;2.00;99.90;;;;;;4958447;28;20491;-87
2022/01/20 06:37:55;;;;;;;9.23;6.25;;;1.90;99.90;;;;;;4971282;28;20176;-86
2022/01/20 06:40:21;;;;;;;15.37;7.00;;;;;;;;;;4956194;28;20213;-84
2022/01/20 06:42:46;;;;;;;10.75;6.53;;;1.90;99.90;;;;;;4950034;28;20219;-87
2022/01/20 06:45:14;;;;;;;15.93;6.40;;;1.90;99.90;;;;;;4950117;28;20192;-86
2022/01/20 06:47:40;;;;;;;15.95;7.10;;;1.80;99.90;;;;;;4956880;28;20176;-83
2022/01/20 06:50:08;;;;;;;17.07;6.13;;;1.80;99.90;;;;;;4956705;28;20188;-86
2022/01/20 06:52:34;;;;;;;12.75;6.57;;;1.80;99.90;;;;;;4964617;28;21183;-85
2022/01/20 06:55:00;;;;;;;8.65;6.22;;;1.70;99.90;;;;;;4960473;28;20214;-85
2022/01/20 06:57:26;;;;;;;14.98;5.75;;;1.70;99.90;;;;;;4962958;28;20188;-86
2022/01/20 06:59:52;;;;;;;8.67;5.07;;;1.70;99.90;;;;;;4965857;28;20267;-85
2022/01/20 07:02:18;;;;;;;10.50;4.50;;;;;;;;;;4967006;28;20475;-87
2022/01/20 07:04:46;;;;;;;9.27;4.53;;;;;;;;;;4966762;28;20192;-86
2022/01/20 07:07:11;;;;;;;12.23;4.70;;;1.70;99.90;;;;;;4959931;28;20454;-86
2022/01/20 07:09:39;;;;;;;10.40;6.10;;;;;;;;;;4966148;28;20738;-84
2022/01/20 07:12:05;;;;;;;10.95;6.05;;;1.60;99.90;;;;;;4962013;28;20188;-82
2022/01/20 07:14:31;;;;;;;8.00;5.20;;;1.50;99.90;;;;;;4959652;28;20327;-87
2022/01/20 07:16:57;;;;;;;7.38;4.05;;;;;;;;;;4962899;28;20435;-86
2022/01/20 07:19:22;;;;;;;13.35;5.82;;;1.60;99.90;;;;;;4964540;28;20255;-86
2022/01/20 07:21:48;;;;;;;8.10;4.67;;;;;;;;;;4981092;28;20252;-85
2022/01/20 07:24:14;;;;;;;16.13;6.20;;;1.70;99.90;;;;;;4959489;28;20230;-85
2022/01/20 07:26:40;;;;;;;15.30;5.67;;;;;;;;;;4957566;28;20212;-85
2022/01/20 07:29:06;;;;;;;8.80;4.60;;;;;;;;;;4954406;28;20218;-85
2022/01/20 07:31:31;;;;;;;11.83;5.43;;;1.80;99.90;;;;;;4955117;28;20470;-85
2022/01/20 07:33:58;;;;;;;23.43;6.10;;;;;;;;;;4954428;28;20514;-85
2022/01/20 07:36:23;;;;;;;15.35;5.88;;;1.80;99.90;;;;;;4958741;28;20690;-87
2022/01/20 07:38:49;;;;;;;20.17;6.63;;;;;;;;;;4961570;28;20184;-85
2022/01/20 07:41:15;;;;;;;10.07;4.82;;;;;;;;;;4958292;28;20275;-85
2022/01/20 07:43:41;;;;;;;10.73;6.63;;;1.90;99.90;;;;;;4957663;28;20257;-84
2022/01/20 07:46:06;;;;;;;12.50;6.30;;;2.10;99.90;;;;;;4956106;28;20196;-85
2022/01/20 07:48:33;;;;;;;11.50;5.33;;;2.30;99.90;;;;;;4960330;28;20180;-86
2022/01/20 07:51:00;;;;;;;42.72;7.10;;;2.30;99.90;;;;;;4960641;28;20175;-84
2022/01/20 07:53:25;;;;;;;12.90;7.10;;;2.40;99.90;;;;;;4954533;28;20198;-86
2022/01/20 07:55:52;;;;;;;11.07;6.20;;;;;;;;;;4969951;28;20267;-82
2022/01/20 07:58:18;;;;;;;11.07;4.78;;;2.70;99.90;;;;;;4970166;28;20435;-84
2022/01/20 08:00:44;;;;;;;12.20;5.47;;;2.60;99.90;;;;;;4961294;28;20184;-84
2022/01/20 08:03:10;;;;;;;14.07;6.60;;;;;;;;;;4960463;28;20207;-82
2022/01/20 08:05:36;;;;;;;17.42;7.78;;;2.60;99.90;;;;;;4973454;28;20203;-87
2022/01/20 08:08:02;;;;;;;18.20;7.13;;;2.70;99.90;;;;;;4961728;28;20191;-85
2022/01/20 08:10:28;;;;;;;19.47;6.17;;;;;;;;;;4965622;28;20191;-82
2022/01/20 08:12:54;;;;;;;13.25;7.45;;;2.80;99.90;;;;;;4960661;28;20183;-84
2022/01/20 08:15:20;;;;;;;12.82;6.65;;;2.80;99.90;;;;;;4967980;28;20579;-86
2022/01/20 08:17:47;;;;;;;18.08;6.70;;;2.80;99.90;;;;;;4959075;28;20187;-84
2022/01/20 08:20:13;;;;;;;10.13;6.18;;;2.80;99.90;;;;;;4966602;28;20653;-85
2022/01/20 08:22:39;;;;;;;21.85;7.90;;;2.80;99.90;;;;;;4967463;28;20219;-83
2022/01/20 08:25:10;;;;;;;12.30;6.60;;;2.90;99.90;;;;;;4964496;28;20350;-84
2022/01/20 08:27:37;;;;;;;9.88;4.50;;;2.90;99.90;;;;;;4954550;28;20827;-84
2022/01/20 08:30:09;;;;;;;6.63;4.28;;;3.00;99.90;;;;;;4964903;28;20183;-84
2022/01/20 08:32:35;;;;;;;9.85;6.70;;;;;;;;;;4962640;28;21121;-86
2022/01/20 08:35:05;;;;;;;10.23;5.70;;;;;;;;;;4970361;28;20235;-84
2022/01/20 08:37:35;;;;;;;15.13;7.07;;;3.10;99.90;;;;;;4956413;28;20218;-81
2022/01/20 08:40:07;;;;;;;11.02;6.57;;;3.10;99.90;;;;;;4965931;28;20517;-85
2022/01/20 08:42:33;;;;;;;11.10;6.15;;;3.10;99.90;;;;;;4979542;28;20194;-85
2022/01/20 08:44:59;;;;;;;10.93;6.20;;;;;;;;;;4960789;28;20784;-85
2022/01/20 08:47:26;;;;;;;14.25;5.15;;;3.20;99.90;;;;;;4956703;28;20208;-85
2022/01/20 08:49:51;;;;;;;8.98;5.47;;;3.30;99.90;;;;;;4964661;28;20188;-86
2022/01/20 08:52:18;;;;;;;6.27;4.20;;;3.20;99.90;;;;;;4973212;28;20190;-84
2022/01/20 08:54:47;;;;;;;9.93;4.55;;;3.30;99.90;;;;;;4959342;28;20191;-85
2022/01/20 08:57:14;;;;;;;12.13;5.40;;;3.30;99.90;;;;;;4961781;28;20187;-86
2022/01/20 08:59:42;;;;;;;25.50;6.03;;;3.50;99.90;;;;;;4969311;28;20222;-84
2022/01/20 09:02:08;;;;;;;12.88;4.88;;;3.40;99.90;;;;;;4980412;28;20184;-83
2022/01/20 09:04:34;;;;;;;9.27;4.55;;;3.40;99.90;;;;;;4989410;28;20242;-83
2022/01/20 09:07:00;;;;;;;13.67;5.10;;;;;;;;;;4962880;28;20687;-84
2022/01/20 09:09:26;;;;;;;8.60;4.13;;;;;;;;;;4968315;28;20218;-88
2022/01/20 09:12:16;;;;;;;8.00;4.47;;;;;;;;;;4967375;28;20500;-85
2022/01/20 09:17:30;;;;;;;7.60;4.15;;;3.40;99.90;;;;;;4968502;28;20227;-88
2022/01/20 09:19:57;;;;;;;10.65;5.60;;;3.40;99.90;;;;;;4976350;28;20180;-83
2022/01/20 09:22:24;;;;;;;9.45;4.43;;;;;;;;;;4986608;28;20755;-84
2022/01/20 09:24:50;;;;;;;11.20;4.43;;;;;;;;;;4982289;28;20683;-84
2022/01/20 09:27:15;;;;;;;12.43;4.57;;;3.70;99.90;;;;;;4960901;28;20279;-85
2022/01/20 09:29:41;;;;;;;8.50;4.07;;;4.00;99.90;;;;;;4962160;28;21005;-87
2022/01/20 09:32:10;;;;;;;9.20;3.75;;;4.00;99.90;;;;;;4956612;28;20177;-85
2022/01/20 09:34:36;;;;;;;17.85;4.65;;;4.30;99.90;;;;;;4957049;28;20225;-83
2022/01/20 09:37:02;;;;;;;14.07;5.03;;;6.20;99.90;;;;;;4951375;28;20279;-88
2022/01/20 09:39:28;;;;;;;14.38;4.07;;;4.50;99.90;;;;;;4966704;28;20680;-84
2022/01/20 09:41:54;;;;;;;13.07;5.03;;;;;;;;;;4963738;28;20217;-85
2022/01/20 09:44:20;;;;;;;12.98;5.28;;;4.20;99.90;;;;;;4958735;28;20313;-86
2022/01/20 09:46:47;;;;;;;14.73;4.30;;;3.90;99.90;;;;;;4958019;28;20294;-85
2022/01/20 09:49:13;;;;;;;12.77;4.70;;;4.00;99.90;;;;;;4964327;28;20176;-86
2022/01/20 09:51:40;;;;;;;14.30;5.78;;;4.10;99.90;;;;;;4958911;28;20241;-86
2022/01/20 09:54:06;;;;;;;14.77;5.60;;;4.20;99.90;;;;;;4960818;28;20664;-87
2022/01/20 09:56:33;;;;;;;11.98;4.55;;;4.20;99.90;;;;;;4957823;28;20285;-85
2022/01/20 09:58:58;;;;;;;9.82;4.25;;;4.20;99.90;;;;;;4965680;28;21236;-83
2022/01/20 10:01:44;;;;;;;6.33;3.17;;;4.20;99.90;;;;;;4974890;28;20199;-86
2022/01/20 10:04:21;;;;;;;16.23;5.63;;;4.20;99.90;;;;;;4975334;28;20234;-83
2022/01/20 10:07:06;;;;;;;4.20;2.55;;;4.10;99.90;;;;;;4965444;28;20214;-82
2022/01/20 10:09:39;;;;;;;12.23;3.92;;;4.10;99.90;;;;;;4967542;28;20195;-86
2022/01/20 10:12:08;;;;;;;10.20;3.85;;;4.20;99.90;;;;;;4963686;28;20232;-85
2022/01/20 10:14:50;;;;;;;14.45;4.80;;;4.10;99.90;;;;;;4974956;28;20241;-85
2022/01/20 10:17:31;;;;;;;16.70;3.95;;;4.10;99.90;;;;;;4954288;28;20204;-86
2022/01/20 10:20:05;;;;;;;9.45;3.53;;;4.00;99.90;;;;;;4966169;28;20736;-87
2022/01/20 10:22:35;;;;;;;7.60;3.17;;;4.00;99.90;;;;;;4960440;28;20183;-84
2022/01/20 10:25:05;;;;;;;8.48;3.40;;;4.10;99.90;;;;;;4958179;28;20200;-88
2022/01/20 10:27:33;;;;;;;4.57;2.95;;;4.20;99.90;;;;;;4959730;28;20191;-83
2022/01/20 10:30:03;;;;;;;9.60;3.33;;;4.20;99.90;;;;;;4985679;28;20203;-84
2022/01/20 10:32:43;;;;;;;5.22;3.13;;;4.70;99.90;;;;;;4961149;28;20258;-86
2022/01/20 10:35:11;;;;;;;6.45;4.25;;;4.10;99.90;;;;;;4961613;28;20318;-85
2022/01/20 10:37:39;;;;;;;9.80;3.50;;;4.10;99.90;;;;;;4964115;28;20195;-86
2022/01/20 10:40:14;;;;;;;18.42;5.07;;;4.10;99.90;;;;;;4967833;28;20855;-87
2022/01/20 10:42:42;;;;;;;13.05;4.28;;;4.10;99.90;;;;;;4974502;28;20214;-86
2022/01/20 10:45:17;;;;;;;14.68;3.88;;;4.10;99.90;;;;;;4964041;28;20206;-86
2022/01/20 10:47:51;;;;;;;8.25;3.35;;;4.10;99.90;;;;;;4979562;28;20186;-86
2022/01/20 10:50:36;;;;;;;9.65;3.40;;;4.10;99.90;;;;;;4964039;28;20176;-86
2022/01/20 10:53:02;;;;;;;8.73;3.55;;;4.10;99.90;;;;;;4965418;28;20194;-85
2022/01/20 10:55:35;;;;;;;7.70;2.90;;;4.10;99.90;;;;;;4960110;28;20204;-86
2022/01/20 10:58:11;;;;;;;5.15;3.15;;;4.00;99.90;;;;;;4954961;28;20199;-83
2022/01/20 11:00:46;;;;;;;7.00;2.92;;;4.10;99.90;;;;;;4962334;28;20222;-84
2022/01/20 11:03:13;;;;;;;4.63;2.83;;;4.10;99.90;;;;;;4963623;28;20831;-87
2022/01/20 11:05:40;;;;;;;10.88;3.83;;;4.00;99.90;;;;;;4963501;28;20277;-85
2022/01/20 11:08:06;;;;;;;13.05;4.72;;;4.00;99.90;;;;;;4962753;28;20785;-88
2022/01/20 11:10:32;;;;;;;7.70;3.42;;;4.10;99.90;;;;;;4963329;28;20787;-87
2022/01/20 11:12:58;;;;;;;7.83;3.10;;;;;;;;;;4961758;28;20183;-86
2022/01/20 11:15:26;;;;;;;8.98;3.20;;;4.10;99.90;;;;;;4966059;28;20581;-85
2022/01/20 11:17:53;;;;;;;15.75;5.00;;;4.10;99.90;;;;;;4961037;28;20708;-85
2022/01/20 11:20:22;;;;;;;10.02;4.05;;;4.20;99.90;;;;;;4966815;28;20221;-85
2022/01/20 11:23:04;;;;;;;8.55;4.25;;;4.30;99.90;;;;;;4963035;28;20597;-83
2022/01/20 11:25:35;;;;;;;12.73;5.20;;;4.10;99.90;;;;;;4964610;28;20342;-87
2022/01/20 11:28:22;;;;;;;11.35;3.95;;;4.10;99.90;;;;;;4971774;28;20168;-86
2022/01/20 11:31:09;;;;;;;12.02;5.00;;;3.70;99.90;;;;;;4977513;28;20196;-87
2022/01/20 11:33:39;;;;;;;4.45;1.65;;;3.40;99.90;;;;;;4965179;28;20191;-87
2022/01/20 11:36:29;;;;;;;1.83;1.70;;;2.30;99.90;;;;;;4961383;28;20737;-88
2022/01/20 11:39:04;;;;;;;8.75;2.00;;;2.20;99.90;;;;;;4961146;28;20398;-87
2022/01/20 11:41:49;;;;;;;6.00;2.00;;;1.90;99.90;;;;;;4972638;28;20191;-88
2022/01/20 11:44:26;;;;;;;2.90;2.03;;;1.90;99.90;;;;;;4958966;28;20231;-89
2022/01/20 11:46:53;;;;;;;5.78;2.53;;;1.90;99.90;;;;;;4953299;28;20204;-88
2022/01/20 11:49:21;;;;;;;4.80;2.15;;;2.10;99.90;;;;;;4958978;28;20172;-87
2022/01/20 11:51:53;;;;;;;8.77;2.35;;;2.20;99.90;;;;;;4962258;28;20207;-86
2022/01/20 11:54:30;;;;;;;2.67;1.42;;;;;;;;;;4973942;28;20168;-84
2022/01/20 11:57:15;;;;;;;6.78;1.65;;;2.40;99.90;;;;;;4973491;28;20183;-85
2022/01/20 11:59:55;;;;;;;10.25;1.85;;;2.50;99.90;;;;;;4952160;28;20186;-86
2022/01/20 12:02:32;;;;;;;2.17;1.02;;;2.50;99.90;;;;;;4967233;28;20300;-86
2022/01/20 12:04:59;;;;;;;4.90;1.88;;;2.70;99.90;;;;;;4998923;28;20215;-84
2022/01/20 12:07:28;;;;;;;3.15;1.27;;;3.00;99.90;;;;;;4969923;28;20192;-85
2022/01/20 12:10:09;;;;;;;10.13;2.75;;;2.90;99.90;;;;;;4973661;28;20929;-88
2022/01/20 12:12:37;;;;;;;10.57;1.92;;;3.10;99.90;;;;;;4954140;28;20226;-85
2022/01/20 12:15:15;;;;;;;10.20;2.22;;;3.00;99.90;;;;;;4957778;28;20204;-87
2022/01/20 12:17:55;;;;;;;5.95;1.15;;;3.00;99.90;;;;;;4956752;28;20207;-84
2022/01/20 12:20:25;;;;;;;2.88;1.88;;;2.90;99.90;;;;;;4953454;28;20176;-85
2022/01/20 12:22:52;;;;;;;8.73;2.00;;;3.00;99.90;;;;;;4954125;28;20726;-86
2022/01/20 12:25:20;;;;;;;5.32;1.90;;;3.00;99.90;;;;;;4959038;28;20311;-84
2022/01/20 12:27:47;;;;;;;11.93;1.95;;;2.90;99.90;;;;;;4954105;28;20279;-86
2022/01/20 12:30:24;;;;;;;2.17;1.52;;;2.80;99.90;;;;;;4959779;28;20183;-84
2022/01/20 12:33:10;;;;;;;6.70;1.80;;;2.90;99.90;;;;;;4963223;28;20184;-85
2022/01/20 12:35:51;;;;;;;6.65;1.60;;;2.80;99.90;;;;;;4962628;28;20203;-84
2022/01/20 12:38:27;;;;;;;13.60;3.53;;;2.80;99.90;;;;;;4963363;28;20191;-86
2022/01/20 12:41:00;;;;;;;10.60;2.22;;;2.80;99.90;;;;;;4953220;28;20183;-85
2022/01/20 12:43:37;;;;;;;7.68;2.15;;;2.70;99.90;;;;;;4951594;28;20209;-85
2022/01/20 12:46:03;;;;;;;5.65;2.15;;;2.80;99.90;;;;;;4954145;28;20261;-84
2022/01/20 12:48:29;;;;;;;9.68;2.72;;;2.80;99.90;;;;;;4952372;28;20204;-85
2022/01/20 12:50:55;;;;;;;11.27;2.53;;;;;;;;;;4958189;28;20737;-85
2022/01/20 12:53:55;;;;;;;5.15;2.33;;;2.80;99.90;;;;;;4966196;28;20184;-84
2022/01/20 12:56:30;;;;;;;6.60;2.40;;;2.80;99.90;;;;;;4972772;28;20226;-84
2022/01/20 12:58:56;;;;;;;4.15;2.10;;;2.90;99.90;;;;;;4970753;28;20179;-82
2022/01/20 13:01:22;;;;;;;9.17;1.77;;;;;;;;;;4971494;28;20210;-86
2022/01/20 13:03:49;;;;;;;8.18;2.13;;;2.80;99.90;;;;;;4969474;28;20532;-85
2022/01/20 13:06:23;;;;;;;14.27;2.88;;;2.70;99.90;;;;;;4961948;28;20192;-84
2022/01/20 13:09:06;;;;;;;9.55;3.03;;;2.80;99.90;;;;;;4968075;28;20172;-85
2022/01/20 13:11:43;;;;;;;5.47;1.80;;;2.90;99.90;;;;;;4967539;28;20252;-85
2022/01/20 13:14:11;;;;;;;13.05;2.75;;;3.30;99.90;;;;;;4952051;28;20183;-83
2022/01/20 13:16:37;;;;;;;5.30;2.95;;;2.70;99.90;;;;;;4958802;28;20298;-84
2022/01/20 13:19:06;;;;;;;7.95;1.90;;;3.20;99.90;;;;;;4965479;28;20176;-82
2022/01/20 13:21:46;;;;;;;4.22;2.08;;;2.60;99.90;;;;;;4979681;28;20629;-84
2022/01/20 13:24:17;;;;;;;3.55;2.15;;;;;;;;;;4966427;28;20676;-85
2022/01/20 13:26:51;;;;;;;5.32;3.28;;;2.60;99.90;;;;;;4953681;28;20220;-84
2022/01/20 13:29:18;;;;;;;5.95;1.35;;;2.60;99.90;;;;;;4964803;28;20168;-86
2022/01/20 13:31:44;;;;;;;7.15;3.10;;;2.80;99.90;;;;;;4961023;28;20558;-86
2022/01/20 13:34:13;;;;;;;8.73;3.10;;;2.70;99.90;;;;;;4961151;28;20199;-85
2022/01/20 13:36:48;;;;;;;7.47;2.63;;;2.70;99.90;;;;;;4966645;28;20205;-83
2022/01/20 13:39:29;;;;;;;7.80;3.05;;;2.70;99.90;;;;;;4959374;28;20262;-84
2022/01/20 13:45:14;;;;;;;9.27;3.95;;;4.60;99.90;;;;;;4957173;28;20215;-85
2022/01/20 13:47:54;;;;;;;11.73;3.53;;;2.60;99.90;;;;;;4960471;28;20187;-86
2022/01/20 13:50:35;;;;;;;10.45;3.35;;;2.60;99.90;;;;;;4963196;28;20191;-84
2022/01/20 13:53:14;;;;;;;8.93;2.70;;;2.60;99.90;;;;;;4951469;28;20196;-85
2022/01/20 13:55:41;;;;;;;6.72;3.70;;;2.50;99.90;;;;;;4959549;28;20216;-85
2022/01/20 13:58:07;;;;;;;8.90;3.42;;;2.50;99.90;;;;;;4957224;28;20789;-85
2022/01/20 14:00:38;;;;;;;8.07;3.25;;;2.50;99.90;;;;;;4952911;28;20239;-83
2022/01/20 14:03:07;;;;;;;13.95;4.00;;;2.40;99.90;;;;;;4956649;28;20187;-81
2022/01/20 14:05:33;;;;;;;9.77;3.67;;;2.30;99.90;;;;;;4981307;28;20290;-84
2022/01/20 14:08:00;;;;;;;4.80;3.33;;;2.30;99.90;;;;;;4966510;28;20423;-83
2022/01/20 14:10:26;;;;;;;13.90;3.40;;;2.30;99.90;;;;;;4972508;28;20447;-89
2022/01/20 14:12:52;;;;;;;3.63;2.65;;;2.30;99.90;;;;;;4961816;28;20207;-84
2022/01/20 14:15:19;;;;;;;5.60;2.43;;;;;;;;;;4967618;28;20222;-84
2022/01/20 14:17:54;;;;;;;13.45;3.63;;;2.30;99.90;;;;;;4966488;28;20191;-84
2022/01/20 14:20:23;;;;;;;9.25;3.78;;;2.20;99.90;;;;;;4960536;28;20233;-85
2022/01/20 14:22:50;;;;;;;10.30;4.32;;;2.30;99.90;;;;;;4969044;28;20207;-82
2022/01/20 14:25:16;;;;;;;9.23;3.72;;;2.40;99.90;;;;;;4975346;28;20326;-85